createdAt,value
2018-01-19T00:02:32.393Z,4.22
2018-01-19T00:05:06.823Z,5.03
2018-01-19T00:07:42.197Z,3.70
2018-01-19T00:10:16.809Z,5.12
2018-01-19T00:12:51.337Z,5.40
2018-01-19T00:15:25.753Z,4.50
2018-01-19T00:18:00.149Z,3.35
2018-01-19T00:20:34.610Z,3.92
2018-01-19T00:23:09.006Z,4.87
2018-01-19T00:25:43.409Z,5.90
2018-01-19T00:28:17.941Z,5.72
2018-01-19T00:30:52.539Z,4.87
2018-01-19T00:33:26.936Z,5.60
2018-01-19T00:36:01.364Z,6.20
2018-01-19T00:38:35.923Z,6.45
2018-01-19T00:41:10.390Z,4.68
2018-01-19T00:43:44.754Z,5.37
2018-01-19T00:46:19.268Z,2.20
2018-01-19T00:48:54.933Z,4.70
2018-01-19T00:51:29.468Z,4.57
2018-01-19T00:54:03.850Z,4.87
2018-01-19T00:56:38.328Z,4.12
2018-01-19T00:59:12.935Z,5.72
2018-01-19T01:01:47.348Z,4.45
2018-01-19T01:04:21.838Z,4.65
2018-01-19T01:06:56.228Z,4.60
2018-01-19T01:09:30.718Z,3.58
2018-01-19T01:12:05.155Z,3.22
2018-01-19T01:14:39.537Z,3.87
2018-01-19T01:17:14.034Z,4.85
2018-01-19T01:19:48.376Z,4.15
2018-01-19T01:22:22.881Z,4.43
2018-01-19T01:24:57.407Z,4.20
2018-01-19T01:27:31.974Z,3.72
2018-01-19T01:30:06.515Z,4.60
2018-01-19T01:32:40.978Z,4.18
2018-01-19T01:35:15.571Z,4.32
2018-01-19T01:37:50.076Z,3.95
2018-01-19T01:40:24.539Z,3.22
2018-01-19T01:42:59.067Z,3.50
2018-01-19T01:45:33.594Z,4.37
2018-01-19T01:48:08.114Z,3.10
2018-01-19T01:50:42.574Z,3.55
2018-01-19T01:53:16.915Z,3.85
2018-01-19T01:55:51.273Z,2.87
2018-01-19T01:58:25.759Z,3.83
2018-01-19T02:01:00.160Z,2.78
2018-01-19T02:03:34.527Z,3.22
2018-01-19T02:06:08.856Z,2.75
2018-01-19T02:08:43.383Z,2.22
2018-01-19T02:11:17.777Z,3.50
2018-01-19T02:13:53.096Z,2.83
2018-01-19T02:16:27.644Z,2.37
2018-01-19T02:19:02.066Z,3.05
2018-01-19T02:21:36.572Z,3.28
2018-01-19T02:24:11.195Z,3.25
2018-01-19T02:26:45.719Z,2.78
2018-01-19T02:29:20.046Z,3.35
2018-01-19T02:31:54.595Z,2.28
2018-01-19T02:34:28.934Z,4.00
2018-01-19T02:37:03.485Z,2.70
2018-01-19T02:39:37.998Z,3.40
2018-01-19T02:42:13.280Z,2.78
2018-01-19T02:44:47.762Z,3.65
2018-01-19T02:47:22.159Z,2.55
2018-01-19T02:49:56.957Z,2.90
2018-01-19T02:52:31.436Z,3.12
2018-01-19T02:55:05.976Z,3.25
2018-01-19T02:57:40.493Z,2.83
2018-01-19T03:00:15.723Z,3.50
2018-01-19T03:02:50.332Z,3.00
2018-01-19T03:05:24.657Z,4.12
2018-01-19T03:07:59.068Z,3.60
2018-01-19T03:10:33.638Z,3.03
2018-01-19T03:13:08.140Z,3.65
2018-01-19T03:15:42.491Z,4.03
2018-01-19T03:18:17.034Z,3.50
2018-01-19T03:20:51.518Z,3.67
2018-01-19T03:23:26.117Z,3.37
2018-01-19T03:26:01.461Z,3.53
2018-01-19T03:28:37.510Z,2.67
2018-01-19T03:31:12.034Z,3.05
2018-01-19T03:33:46.547Z,2.33
2018-01-19T03:36:21.062Z,3.20
2018-01-19T03:38:55.501Z,3.30
2018-01-19T03:41:30.800Z,1.75
2018-01-19T03:44:05.343Z,4.07
2018-01-19T03:46:39.878Z,3.00
2018-01-19T03:49:14.408Z,2.65
2018-01-19T03:51:49.673Z,2.00
2018-01-19T03:54:24.128Z,3.45
2018-01-19T03:56:58.501Z,3.10
2018-01-19T03:59:33.005Z,2.05
2018-01-19T04:02:07.401Z,3.40
2018-01-19T04:04:42.049Z,2.95
2018-01-19T04:07:16.905Z,3.25
2018-01-19T04:09:51.381Z,4.37
2018-01-19T04:12:26.713Z,3.58
2018-01-19T04:15:01.977Z,2.90
2018-01-19T04:17:36.483Z,4.28
2018-01-19T04:20:10.999Z,3.62
2018-01-19T04:22:45.526Z,3.62
2018-01-19T04:25:20.064Z,4.22
2018-01-19T04:27:54.501Z,3.55
2018-01-19T04:30:28.889Z,4.78
2018-01-19T04:33:03.389Z,5.10
2018-01-19T04:35:38.541Z,5.00
2018-01-19T04:38:13.135Z,6.45
2018-01-19T04:40:47.496Z,5.60
2018-01-19T04:43:21.934Z,4.25
2018-01-19T04:45:56.453Z,7.05
2018-01-19T04:48:30.966Z,5.60
2018-01-19T04:51:06.193Z,4.53
2018-01-19T04:53:40.568Z,5.57
2018-01-19T04:56:15.025Z,5.65
2018-01-19T04:58:49.469Z,4.70
2018-01-19T05:01:23.863Z,7.35
2018-01-19T05:03:58.284Z,5.90
2018-01-19T05:06:32.819Z,9.80
2018-01-19T05:09:07.318Z,8.60
2018-01-19T05:11:41.793Z,7.32
2018-01-19T05:14:16.262Z,8.00
2018-01-19T05:16:50.829Z,9.25
2018-01-19T05:19:25.241Z,11.07
2018-01-19T05:21:59.650Z,11.77
2018-01-19T05:24:34.083Z,10.32
2018-01-19T05:27:08.586Z,13.15
2018-01-19T05:29:42.959Z,12.18
2018-01-19T05:32:17.528Z,13.80
2018-01-19T05:34:51.897Z,12.35
2018-01-19T05:37:26.258Z,12.13
2018-01-19T05:40:00.804Z,15.35
2018-01-19T05:42:35.184Z,9.55
2018-01-19T05:45:09.541Z,9.05
2018-01-19T05:47:44.028Z,11.85
2018-01-19T05:50:18.372Z,12.82
2018-01-19T05:52:52.866Z,11.07
2018-01-19T05:55:27.225Z,10.80
2018-01-19T05:58:02.557Z,10.75
2018-01-19T06:00:37.377Z,9.43
2018-01-19T06:03:11.968Z,11.80
2018-01-19T06:05:46.536Z,5.03
2018-01-19T06:08:21.855Z,8.20
2018-01-19T06:10:56.407Z,12.48
2018-01-19T06:13:31.182Z,13.73
2018-01-19T06:16:06.217Z,11.32
2018-01-19T06:18:40.647Z,8.07
2018-01-19T06:21:15.040Z,12.45
2018-01-19T06:23:49.528Z,12.65
2018-01-19T06:26:24.184Z,8.80
2018-01-19T06:28:58.516Z,12.02
2018-01-19T06:31:32.887Z,9.60
2018-01-19T06:34:07.330Z,10.25
2018-01-19T06:36:41.849Z,9.65
2018-01-19T06:39:16.309Z,9.45
2018-01-19T06:41:50.761Z,10.82
2018-01-19T06:44:25.232Z,13.05
2018-01-19T06:47:00.570Z,11.52
2018-01-19T06:49:34.998Z,7.45
2018-01-19T06:52:10.288Z,12.85
2018-01-19T06:54:44.866Z,14.52
2018-01-19T06:57:19.242Z,9.70
2018-01-19T06:59:53.720Z,8.98
2018-01-19T07:02:28.281Z,13.35
2018-01-19T07:05:02.879Z,13.23
2018-01-19T07:07:37.222Z,12.15
2018-01-19T07:10:11.684Z,10.13
2018-01-19T07:12:46.941Z,9.65
2018-01-19T07:15:21.520Z,8.73
2018-01-19T07:17:55.996Z,12.50
2018-01-19T07:20:30.495Z,14.30
2018-01-19T07:23:04.933Z,9.85
2018-01-19T07:25:40.222Z,10.77
2018-01-19T07:28:14.777Z,11.70
2018-01-19T07:30:49.130Z,11.25
2018-01-19T07:33:23.496Z,10.70
2018-01-19T07:35:58.664Z,10.48
2018-01-19T07:38:33.078Z,8.13
2018-01-19T07:41:07.528Z,7.68
2018-01-19T07:43:42.775Z,10.48
2018-01-19T07:46:17.289Z,11.93
2018-01-19T07:48:51.807Z,11.15
2018-01-19T07:51:26.263Z,8.18
2018-01-19T07:54:00.623Z,11.70
2018-01-19T07:56:35.014Z,9.68
2018-01-19T07:59:09.537Z,9.10
2018-01-19T08:01:43.906Z,8.50
2018-01-19T08:04:18.261Z,9.20
2018-01-19T08:06:52.659Z,10.73
2018-01-19T08:09:27.232Z,9.15
2018-01-19T08:12:01.844Z,11.15
2018-01-19T08:14:36.370Z,12.37
2018-01-19T08:17:10.838Z,10.55
2018-01-19T08:19:46.028Z,11.40
2018-01-19T08:22:20.617Z,12.37
2018-01-19T08:24:55.204Z,9.50
2018-01-19T08:27:29.629Z,13.13
2018-01-19T08:30:04.113Z,9.07
2018-01-19T08:32:38.587Z,9.57
2018-01-19T08:35:13.082Z,10.77
2018-01-19T08:37:47.472Z,8.45
2018-01-19T08:40:21.822Z,10.18
2018-01-19T08:42:56.470Z,10.68
2018-01-19T08:45:30.981Z,9.90
2018-01-19T08:48:06.186Z,8.93
2018-01-19T08:50:40.686Z,10.95
2018-01-19T08:53:15.963Z,11.68
2018-01-19T08:55:50.391Z,10.20
2018-01-19T08:58:24.724Z,10.43
2018-01-19T09:00:59.313Z,6.80
2018-01-19T09:03:33.758Z,10.77
2018-01-19T09:06:10.083Z,10.10
2018-01-19T09:08:44.607Z,7.55
2018-01-19T09:11:19.060Z,6.72
2018-01-19T09:13:53.629Z,8.00
2018-01-19T09:16:27.982Z,7.40
2018-01-19T09:19:03.238Z,10.98
2018-01-19T09:21:37.625Z,10.18
2018-01-19T09:24:12.222Z,9.80
2018-01-19T09:26:46.751Z,9.38
2018-01-19T09:29:21.259Z,8.18
2018-01-19T09:31:55.920Z,7.70
2018-01-19T09:34:30.616Z,8.10
2018-01-19T09:37:05.186Z,9.05
2018-01-19T09:39:39.664Z,7.00
2018-01-19T09:42:14.968Z,7.20
2018-01-19T09:44:49.508Z,5.68
2018-01-19T09:47:23.980Z,3.15
2018-01-19T09:49:59.118Z,7.50
2018-01-19T09:52:34.383Z,6.28
2018-01-19T09:55:08.841Z,9.15
2018-01-19T09:57:43.367Z,6.82
2018-01-19T10:00:17.764Z,7.15
2018-01-19T10:02:52.245Z,7.53
2018-01-19T10:05:26.645Z,6.65
2018-01-19T10:08:01.186Z,6.85
2018-01-19T10:10:35.644Z,8.60
2018-01-19T10:13:10.235Z,6.05
2018-01-19T10:15:44.568Z,5.25
2018-01-19T10:18:19.185Z,9.32
2018-01-19T10:20:53.689Z,6.25
2018-01-19T10:23:28.220Z,3.78
2018-01-19T10:26:02.645Z,8.27
2018-01-19T10:28:37.365Z,4.10
2018-01-19T10:31:11.894Z,7.32
2018-01-19T10:33:46.453Z,7.82
2018-01-19T10:36:20.912Z,8.15
2018-01-19T10:38:55.470Z,6.05
2018-01-19T10:41:29.868Z,6.80
2018-01-19T10:44:04.361Z,5.78
2018-01-19T10:46:38.929Z,7.15
2018-01-19T10:49:13.285Z,4.70
2018-01-19T10:51:47.882Z,5.37
2018-01-19T10:54:22.405Z,5.90
2018-01-19T10:56:56.874Z,5.00
2018-01-19T10:59:31.451Z,7.43
2018-01-19T11:02:05.820Z,6.37
2018-01-19T11:04:40.362Z,7.25
2018-01-19T11:07:14.765Z,6.68
2018-01-19T11:09:49.140Z,5.85
2018-01-19T11:12:23.662Z,3.05
2018-01-19T11:14:58.127Z,6.20
2018-01-19T11:17:32.724Z,4.47
2018-01-19T11:20:07.189Z,5.05
2018-01-19T11:22:41.655Z,4.75
2018-01-19T11:25:16.012Z,7.50
2018-01-19T11:27:50.458Z,6.30
2018-01-19T11:30:24.979Z,3.55
2018-01-19T11:32:59.379Z,5.93
2018-01-19T11:35:33.856Z,6.45
2018-01-19T11:38:08.373Z,6.75
2018-01-19T11:40:42.740Z,7.50
2018-01-19T11:43:17.332Z,9.50
2018-01-19T11:45:51.723Z,7.82
2018-01-19T11:48:26.251Z,6.18
2018-01-19T11:51:01.578Z,7.15
2018-01-19T11:53:36.081Z,6.62
2018-01-19T11:56:10.583Z,6.32
2018-01-19T11:58:45.113Z,5.75
2018-01-19T12:01:20.552Z,5.45
2018-01-19T12:03:56.077Z,7.10
2018-01-19T12:06:30.424Z,7.03
2018-01-19T12:09:04.788Z,7.37
2018-01-19T12:11:40.179Z,5.85
2018-01-19T12:14:14.714Z,5.87
2018-01-19T12:16:49.362Z,5.62
2018-01-19T12:19:23.878Z,7.35
2018-01-19T12:21:58.234Z,3.95
2018-01-19T12:24:32.815Z,6.55
2018-01-19T12:27:07.403Z,8.13
2018-01-19T12:29:42.582Z,8.10
2018-01-19T12:32:17.105Z,6.18
2018-01-19T12:34:51.465Z,7.03
2018-01-19T12:37:26.021Z,5.62
2018-01-19T12:40:00.529Z,3.67
2018-01-19T12:42:35.065Z,10.25
2018-01-19T12:45:09.462Z,5.22
2018-01-19T12:47:44.009Z,7.47
2018-01-19T12:50:18.401Z,9.25
2018-01-19T12:52:52.819Z,7.47
2018-01-19T12:55:27.279Z,5.22
2018-01-19T12:58:01.871Z,10.57
2018-01-19T13:00:36.438Z,12.20
2018-01-19T13:03:10.998Z,9.73
2018-01-19T13:05:45.373Z,10.57
2018-01-19T13:08:19.773Z,11.20
2018-01-19T13:10:55.026Z,6.87
2018-01-19T13:13:29.582Z,13.95
2018-01-19T13:16:04.161Z,9.32
2018-01-19T13:18:38.709Z,12.73
2018-01-19T13:21:13.198Z,10.68
2018-01-19T13:23:47.707Z,9.68
2018-01-19T13:26:22.944Z,13.77
2018-01-19T13:28:58.107Z,14.32
2018-01-19T13:31:32.466Z,13.00
2018-01-19T13:34:06.928Z,14.95
2018-01-19T13:36:42.172Z,14.18
2018-01-19T13:39:16.647Z,11.75
2018-01-19T13:41:51.124Z,12.07
2018-01-19T13:44:25.725Z,14.23
2018-01-19T13:47:00.128Z,13.95
2018-01-19T13:49:34.694Z,13.60
2018-01-19T13:52:09.114Z,14.95
2018-01-19T13:54:43.613Z,13.93
2018-01-19T13:57:18.104Z,15.60
2018-01-19T13:59:52.726Z,12.80
2018-01-19T14:02:27.242Z,17.48
2018-01-19T14:05:01.795Z,16.52
2018-01-19T14:07:36.173Z,19.42
2018-01-19T14:10:10.761Z,19.15
2018-01-19T14:12:45.232Z,18.10
2018-01-19T14:15:19.656Z,15.80
2018-01-19T14:17:54.159Z,16.30
2018-01-19T14:20:28.726Z,12.48
2018-01-19T14:23:03.068Z,15.75
2018-01-19T14:25:37.418Z,13.50
2018-01-19T14:28:12.007Z,8.80
2018-01-19T14:30:47.240Z,17.95
2018-01-19T14:33:21.729Z,17.80
2018-01-19T14:35:56.268Z,20.20
2018-01-19T14:38:31.482Z,21.37
2018-01-19T14:41:05.972Z,13.75
2018-01-19T14:43:40.466Z,18.67
2018-01-19T14:46:14.878Z,20.40
2018-01-19T14:48:50.217Z,18.55
2018-01-19T14:51:25.314Z,16.98
2018-01-19T14:53:59.680Z,13.32
2018-01-19T14:56:34.204Z,15.63
2018-01-19T14:59:08.660Z,14.85
2018-01-19T15:01:44.004Z,16.45
2018-01-19T15:04:18.539Z,15.13
2018-01-19T15:06:53.040Z,13.43
2018-01-19T15:09:27.591Z,16.00
2018-01-19T15:12:02.179Z,10.73
2018-01-19T15:14:36.568Z,14.87
2018-01-19T15:17:11.851Z,18.73
2018-01-19T15:19:46.378Z,18.23
2018-01-19T15:22:20.698Z,14.73
2018-01-19T15:24:55.275Z,14.63
2018-01-19T15:27:29.712Z,15.20
2018-01-19T15:30:04.170Z,11.23
2018-01-19T15:32:38.692Z,11.90
2018-01-19T15:35:13.201Z,16.00
2018-01-19T15:37:47.748Z,17.15
2018-01-19T15:40:22.271Z,7.22
2018-01-19T15:42:56.726Z,11.12
2018-01-19T15:45:31.105Z,18.10
2018-01-19T15:48:05.492Z,20.17
2018-01-19T15:50:40.760Z,19.02
2018-01-19T15:53:15.326Z,15.13
2018-01-19T15:55:49.822Z,12.85
2018-01-19T15:58:25.382Z,16.35
2018-01-19T16:00:59.781Z,18.27
2018-01-19T16:03:34.200Z,14.45
2018-01-19T16:06:08.693Z,15.70
2018-01-19T16:08:43.194Z,13.13
2018-01-19T16:11:17.577Z,15.25
2018-01-19T16:13:52.050Z,15.95
2018-01-19T16:16:26.538Z,12.98
2018-01-19T16:19:01.095Z,18.55
2018-01-19T16:21:35.656Z,16.65
2018-01-19T16:24:10.019Z,12.82
2018-01-19T16:26:45.307Z,9.57
2018-01-19T16:29:19.755Z,6.93
2018-01-19T16:31:54.125Z,13.07
2018-01-19T16:34:28.650Z,17.98
2018-01-19T16:37:03.908Z,12.00
2018-01-19T16:39:38.318Z,6.60
2018-01-19T16:42:12.824Z,10.07
2018-01-19T16:44:47.193Z,6.95
2018-01-19T16:47:21.574Z,7.57
2018-01-19T16:49:56.015Z,8.95
2018-01-19T16:52:30.529Z,14.25
2018-01-19T16:55:05.012Z,8.38
2018-01-19T16:57:40.175Z,7.07
2018-01-19T17:00:14.531Z,5.05
2018-01-19T17:02:48.928Z,7.97
2018-01-19T17:05:23.334Z,8.93
2018-01-19T17:07:57.905Z,12.63
2018-01-19T17:10:33.356Z,8.32
2018-01-19T17:13:07.921Z,13.32
2018-01-19T17:15:42.257Z,12.27
2018-01-19T17:18:16.866Z,16.17
2018-01-19T17:20:51.300Z,12.48
2018-01-19T17:23:25.703Z,9.02
2018-01-19T17:26:00.242Z,6.47
2018-01-19T17:28:34.836Z,5.87
2018-01-19T17:31:10.075Z,12.60
2018-01-19T17:33:44.645Z,16.67
2018-01-19T17:36:19.289Z,14.15
2018-01-19T17:38:53.778Z,12.88
2018-01-19T17:41:29.001Z,16.35
2018-01-19T17:44:03.466Z,14.73
2018-01-19T17:46:37.930Z,17.12
2018-01-19T17:49:12.376Z,16.02
2018-01-19T17:51:46.834Z,11.00
2018-01-19T17:54:21.152Z,10.63
2018-01-19T17:56:55.680Z,14.50
2018-01-19T17:59:30.113Z,14.85
2018-01-19T18:02:04.667Z,8.50
2018-01-19T18:04:39.198Z,12.00
2018-01-19T18:07:13.568Z,14.48
2018-01-19T18:09:48.050Z,4.62
2018-01-19T18:12:22.413Z,12.02
2018-01-19T18:14:56.830Z,11.30
2018-01-19T18:17:31.380Z,7.45
2018-01-19T18:20:05.948Z,11.43
2018-01-19T18:22:40.301Z,7.65
2018-01-19T18:25:14.906Z,6.97
2018-01-19T18:30:30.348Z,8.70
2018-01-19T18:33:04.981Z,11.18
2018-01-19T18:35:39.551Z,11.05
2018-01-19T18:38:14.076Z,10.95
2018-01-19T18:40:48.618Z,8.35
2018-01-19T18:43:23.113Z,9.25
2018-01-19T18:45:57.624Z,10.70
2018-01-19T18:48:32.113Z,10.35
2018-01-19T18:51:06.720Z,8.18
2018-01-19T18:53:41.887Z,7.95
2018-01-19T18:56:17.089Z,12.57
2018-01-19T18:58:51.580Z,9.73
2018-01-19T19:01:26.179Z,9.95
2018-01-19T19:04:00.739Z,10.40
2018-01-19T19:06:36.017Z,18.15
2018-01-19T19:09:10.432Z,7.95
2018-01-19T19:11:44.789Z,13.13
2018-01-19T19:14:19.345Z,19.17
2018-01-19T19:16:53.921Z,4.43
2018-01-19T19:19:29.200Z,9.48
2018-01-19T19:22:03.649Z,12.77
2018-01-19T19:24:38.136Z,10.30
2018-01-19T19:27:12.538Z,13.38
2018-01-19T19:29:47.032Z,14.20
2018-01-19T19:32:22.325Z,9.50
2018-01-19T19:34:56.718Z,14.38
2018-01-19T19:37:31.170Z,10.90
2018-01-19T19:40:05.700Z,20.37
2018-01-19T19:42:40.148Z,11.95
2018-01-19T19:45:14.769Z,5.85
2018-01-19T19:47:49.183Z,13.55
2018-01-19T19:50:23.567Z,12.48
2018-01-19T19:52:57.971Z,10.65
2018-01-19T19:55:32.567Z,14.60
2018-01-19T19:58:07.119Z,11.57
2018-01-19T20:00:41.675Z,8.52
2018-01-19T20:03:16.157Z,10.77
2018-01-19T20:05:50.651Z,11.20
2018-01-19T20:08:25.105Z,10.07
2018-01-19T20:10:59.675Z,6.60
2018-01-19T20:13:34.252Z,9.55
2018-01-19T20:16:08.759Z,8.60
2018-01-19T20:18:43.265Z,6.15
2018-01-19T20:21:17.601Z,7.90
2018-01-19T20:23:52.045Z,6.85
2018-01-19T20:26:27.391Z,9.60
2018-01-19T20:29:02.512Z,6.85
2018-01-19T20:31:37.030Z,4.20
2018-01-19T20:34:12.201Z,8.73
2018-01-19T20:36:46.561Z,11.63
2018-01-19T20:39:21.148Z,9.68
2018-01-19T20:41:55.517Z,8.68
2018-01-19T20:44:29.998Z,6.90
2018-01-19T20:47:04.453Z,8.10
2018-01-19T20:49:38.820Z,9.75
2018-01-19T20:52:13.306Z,8.52
2018-01-19T20:54:47.837Z,9.07
2018-01-19T20:57:22.313Z,5.35
2018-01-19T20:59:56.785Z,7.28
2018-01-19T21:02:32.208Z,8.00
2018-01-19T21:05:06.688Z,6.40
2018-01-19T21:07:41.189Z,7.62
2018-01-19T21:10:15.668Z,9.10
2018-01-19T21:12:50.824Z,6.70
2018-01-19T21:15:25.197Z,5.55
2018-01-19T21:17:59.730Z,5.45
2018-01-19T21:20:34.300Z,6.87
2018-01-19T21:23:08.846Z,4.65
2018-01-19T21:25:43.222Z,6.60
2018-01-19T21:28:17.663Z,5.18
2018-01-19T21:30:52.192Z,7.55
2018-01-19T21:33:26.669Z,6.12
2018-01-19T21:36:01.045Z,6.72
2018-01-19T21:38:35.693Z,6.45
2018-01-19T21:41:10.189Z,7.22
2018-01-19T21:43:44.672Z,4.18
2018-01-19T21:46:19.141Z,11.85
2018-01-19T21:48:53.560Z,7.68
2018-01-19T21:51:28.058Z,8.00
2018-01-19T21:54:03.315Z,10.40
2018-01-19T21:56:37.789Z,11.00
2018-01-19T21:59:12.225Z,10.75
2018-01-19T22:01:46.617Z,11.45
2018-01-19T22:04:21.223Z,6.20
2018-01-19T22:06:55.713Z,10.65
2018-01-19T22:09:30.246Z,8.85
2018-01-19T22:12:04.713Z,12.75
2018-01-19T22:14:39.133Z,9.52
2018-01-19T22:17:13.556Z,10.73
2018-01-19T22:19:48.086Z,11.85
2018-01-19T22:22:22.669Z,6.18
2018-01-19T22:24:57.181Z,12.15
2018-01-19T22:27:31.676Z,12.40
2018-01-19T22:30:06.889Z,10.98
2018-01-19T22:32:41.334Z,11.88
2018-01-19T22:35:15.803Z,10.52
2018-01-19T22:37:50.195Z,15.40
2018-01-19T22:40:24.540Z,9.35
2018-01-19T22:42:59.046Z,11.70
2018-01-19T22:45:33.474Z,11.85
2018-01-19T22:48:08.039Z,9.82
2018-01-19T22:50:42.528Z,9.27
2018-01-19T22:53:17.080Z,4.87
2018-01-19T22:55:51.408Z,8.32
2018-01-19T22:58:26.655Z,11.85
2018-01-19T23:01:01.041Z,12.70
2018-01-19T23:03:35.562Z,8.48
2018-01-19T23:06:09.926Z,8.63
2018-01-19T23:08:44.420Z,12.85
2018-01-19T23:11:18.964Z,7.22
2018-01-19T23:13:53.540Z,10.40
2018-01-19T23:16:28.094Z,13.05
2018-01-19T23:19:03.392Z,9.80
2018-01-19T23:21:38.558Z,12.77
2018-01-19T23:24:13.085Z,9.13
2018-01-19T23:26:47.531Z,9.57
2018-01-19T23:29:21.876Z,10.80
2018-01-19T23:31:56.429Z,9.82
2018-01-19T23:34:31.002Z,10.05
2018-01-19T23:37:05.472Z,7.35
2018-01-19T23:39:40.736Z,10.02
2018-01-19T23:42:15.237Z,9.30
2018-01-19T23:44:49.702Z,6.93
2018-01-19T23:47:24.085Z,9.38
2018-01-19T23:49:59.456Z,10.93
2018-01-19T23:52:33.839Z,10.20
2018-01-19T23:55:08.366Z,12.80
2018-01-19T23:57:42.892Z,9.82
